FDX125 KSFO-KLAX
Flight info
| Callsign | FDX125 |
|---|---|
| Flight time | N/A |
| Altitude | 35000 |
| Route | WESLA5 SUSEY EBAYE BURGL IRNMN2 |
| Aircraft | B738/M-SDE2E3FGHIRWXY/LB1 |
Departure
| Time | 2026-05-04 03:13 |
|---|---|
| Airport | San Francisco International Airport (KSFO) |
Arrival
| Time | N/A |
|---|---|
| Airport | Los Angeles International Airport (KLAX) |
| Time | Latitude | Longitude | Altitude | Speed | Heading |
|---|---|---|---|---|---|
| 2026-05-04 02:20 | 37.61928 | -122.39744 | 17 ft | 0 kts | 255° |
| 2026-05-04 02:42 | 37.61929 | -122.39742 | 17 ft | 2 kts | 255° |
| 2026-05-04 02:43 | 37.61935 | -122.39711 | 17 ft | 4 kts | 255° |
| 2026-05-04 02:43 | 37.61943 | -122.39678 | 17 ft | 4 kts | 249° |
| 2026-05-04 02:43 | 37.61955 | -122.39650 | 17 ft | 4 kts | 215° |
| 2026-05-04 02:43 | 37.61966 | -122.39645 | 17 ft | 2 kts | 130° |
| 2026-05-04 02:44 | 37.61969 | -122.39649 | 17 ft | 1 kts | 130° |
| 2026-05-04 02:49 | 37.61968 | -122.39647 | 18 ft | 3 kts | 129° |
| 2026-05-04 02:49 | 37.61945 | -122.39595 | 17 ft | 10 kts | 100° |
| 2026-05-04 02:49 | 37.61961 | -122.39477 | 18 ft | 16 kts | 60° |
| 2026-05-04 02:49 | 37.62010 | -122.39326 | 19 ft | 22 kts | 74° |
| 2026-05-04 02:50 | 37.62120 | -122.39177 | 16 ft | 26 kts | 27° |
| 2026-05-04 02:50 | 37.62272 | -122.39098 | 16 ft | 20 kts | 3° |
| 2026-05-04 02:50 | 37.62398 | -122.39075 | 14 ft | 19 kts | 318° |
| 2026-05-04 02:50 | 37.62481 | -122.39184 | 19 ft | 13 kts | 5° |
| 2026-05-04 02:51 | 37.62563 | -122.39132 | 22 ft | 13 kts | 29° |
| 2026-05-04 02:51 | 37.62640 | -122.39078 | 22 ft | 13 kts | 29° |
| 2026-05-04 02:51 | 37.62712 | -122.39019 | 22 ft | 12 kts | 56° |
| 2026-05-04 02:51 | 37.62758 | -122.38932 | 22 ft | 12 kts | 33° |
| 2026-05-04 02:52 | 37.62819 | -122.38868 | 24 ft | 12 kts | 78° |
| 2026-05-04 02:52 | 37.62792 | -122.38774 | 24 ft | 11 kts | 118° |
| 2026-05-04 02:52 | 37.62753 | -122.38681 | 20 ft | 13 kts | 118° |
| 2026-05-04 02:52 | 37.62708 | -122.38576 | 18 ft | 14 kts | 118° |
| 2026-05-04 02:53 | 37.62665 | -122.38470 | 17 ft | 13 kts | 120° |
| 2026-05-04 02:53 | 37.62620 | -122.38369 | 16 ft | 14 kts | 118° |
| 2026-05-04 02:53 | 37.62577 | -122.38261 | 16 ft | 13 kts | 118° |
| 2026-05-04 02:53 | 37.62534 | -122.38160 | 17 ft | 13 kts | 118° |
| 2026-05-04 02:54 | 37.62486 | -122.38127 | 18 ft | 0 kts | 200° |
| 2026-05-04 02:58 | 37.62472 | -122.38134 | 18 ft | 8 kts | 200° |
| 2026-05-04 02:59 | 37.62414 | -122.38167 | 19 ft | 11 kts | 205° |
| 2026-05-04 02:59 | 37.62320 | -122.38234 | 23 ft | 17 kts | 211° |
| 2026-05-04 02:59 | 37.62216 | -122.38289 | 20 ft | 16 kts | 195° |
| 2026-05-04 02:59 | 37.62108 | -122.38315 | 21 ft | 15 kts | 167° |
| 2026-05-04 03:00 | 37.62045 | -122.38215 | 23 ft | 15 kts | 117° |
| 2026-05-04 03:00 | 37.62000 | -122.38101 | 22 ft | 14 kts | 116° |
| 2026-05-04 03:00 | 37.61956 | -122.37992 | 21 ft | 14 kts | 117° |
| 2026-05-04 03:00 | 37.61903 | -122.37902 | 20 ft | 13 kts | 160° |
| 2026-05-04 03:01 | 37.61823 | -122.37842 | 18 ft | 14 kts | 119° |
| 2026-05-04 03:01 | 37.61789 | -122.37733 | 17 ft | 13 kts | 111° |
| 2026-05-04 03:01 | 37.61757 | -122.37627 | 20 ft | 13 kts | 111° |
| 2026-05-04 03:01 | 37.61723 | -122.37527 | 21 ft | 12 kts | 112° |
| 2026-05-04 03:02 | 37.61687 | -122.37430 | 21 ft | 12 kts | 118° |
| 2026-05-04 03:02 | 37.61646 | -122.37339 | 22 ft | 12 kts | 118° |
| 2026-05-04 03:02 | 37.61608 | -122.37249 | 23 ft | 11 kts | 117° |
| 2026-05-04 03:02 | 37.61572 | -122.37161 | 22 ft | 11 kts | 117° |
| 2026-05-04 03:03 | 37.61536 | -122.37076 | 24 ft | 11 kts | 117° |
| 2026-05-04 03:03 | 37.61502 | -122.36992 | 22 ft | 11 kts | 117° |
| 2026-05-04 03:03 | 37.61469 | -122.36910 | 20 ft | 11 kts | 118° |
| 2026-05-04 03:03 | 37.61421 | -122.36836 | 18 ft | 12 kts | 160° |
| 2026-05-04 03:04 | 37.61363 | -122.36767 | 20 ft | 12 kts | 126° |
| 2026-05-04 03:04 | 37.61324 | -122.36679 | 18 ft | 11 kts | 117° |
| 2026-05-04 03:04 | 37.61286 | -122.36587 | 15 ft | 12 kts | 117° |
| 2026-05-04 03:04 | 37.61247 | -122.36489 | 16 ft | 12 kts | 117° |
| 2026-05-04 03:05 | 37.61208 | -122.36394 | 17 ft | 12 kts | 117° |
| 2026-05-04 03:05 | 37.61166 | -122.36297 | 18 ft | 13 kts | 118° |
| 2026-05-04 03:05 | 37.61121 | -122.36195 | 16 ft | 13 kts | 119° |
| 2026-05-04 03:05 | 37.61125 | -122.36095 | 17 ft | 13 kts | 40° |
| 2026-05-04 03:06 | 37.61152 | -122.36075 | 17 ft | 0 kts | 26° |
| 2026-05-04 03:12 | 37.61153 | -122.36074 | 15 ft | 1 kts | 26° |
| 2026-05-04 03:12 | 37.61164 | -122.36067 | 15 ft | 4 kts | 26° |
| 2026-05-04 03:12 | 37.61207 | -122.36041 | 14 ft | 10 kts | 24° |
| 2026-05-04 03:12 | 37.61275 | -122.36092 | 14 ft | 15 kts | 297° |
| 2026-05-04 03:13 | 37.61356 | -122.36291 | 14 ft | 59 kts | 297° |
| 2026-05-04 03:13 | 37.61708 | -122.37113 | 21 ft | 150 kts | 299° |
| 2026-05-04 03:13 | 37.62304 | -122.38436 | 483 ft | 191 kts | 298° |
| 2026-05-04 03:13 | 37.62983 | -122.39854 | 1848 ft | 185 kts | 295° |
| 2026-05-04 03:14 | 37.63609 | -122.41394 | 2618 ft | 211 kts | 295° |
| 2026-05-04 03:14 | 37.64310 | -122.43096 | 3172 ft | 224 kts | 297° |
| 2026-05-04 03:14 | 37.65063 | -122.44857 | 4060 ft | 229 kts | 298° |
| 2026-05-04 03:14 | 37.65846 | -122.46653 | 4870 ft | 238 kts | 299° |
| 2026-05-04 03:15 | 37.66643 | -122.48533 | 5614 ft | 250 kts | 292° |
| 2026-05-04 03:15 | 37.66867 | -122.50784 | 6136 ft | 270 kts | 260° |
| 2026-05-04 03:15 | 37.66127 | -122.52951 | 6942 ft | 277 kts | 232° |
| 2026-05-04 03:15 | 37.64622 | -122.54478 | 7806 ft | 282 kts | 204° |
| 2026-05-04 03:16 | 37.62692 | -122.54929 | 8637 ft | 286 kts | 174° |
| 2026-05-04 03:16 | 37.60788 | -122.54295 | 9524 ft | 287 kts | 156° |
| 2026-05-04 03:16 | 37.58971 | -122.53250 | 10438 ft | 289 kts | 153° |
| 2026-05-04 03:16 | 37.57094 | -122.52099 | 10809 ft | 311 kts | 154° |
| 2026-05-04 03:17 | 37.55056 | -122.50888 | 11096 ft | 333 kts | 155° |
| 2026-05-04 03:17 | 37.52935 | -122.49672 | 11695 ft | 343 kts | 156° |
| 2026-05-04 03:17 | 37.50761 | -122.48451 | 12599 ft | 343 kts | 156° |
| 2026-05-04 03:17 | 37.48653 | -122.47017 | 13369 ft | 347 kts | 142° |
| 2026-05-04 03:18 | 37.46948 | -122.44860 | 14178 ft | 349 kts | 133° |
| 2026-05-04 03:18 | 37.45299 | -122.42586 | 14934 ft | 353 kts | 133° |
| 2026-05-04 03:18 | 37.43637 | -122.40286 | 15692 ft | 356 kts | 133° |
| 2026-05-04 03:18 | 37.41958 | -122.37969 | 16432 ft | 358 kts | 133° |
| 2026-05-04 03:19 | 37.40267 | -122.35646 | 17128 ft | 362 kts | 133° |
| 2026-05-04 03:19 | 37.38580 | -122.33338 | 17847 ft | 364 kts | 133° |
| 2026-05-04 03:19 | 37.36853 | -122.30985 | 18508 ft | 367 kts | 133° |
| 2026-05-04 03:19 | 37.35110 | -122.28615 | 19152 ft | 370 kts | 133° |
| 2026-05-04 03:20 | 37.33347 | -122.26223 | 19789 ft | 373 kts | 133° |
| 2026-05-04 03:20 | 37.31576 | -122.23822 | 20411 ft | 376 kts | 133° |
| 2026-05-04 03:20 | 37.29789 | -122.21401 | 20998 ft | 379 kts | 133° |
| 2026-05-04 03:20 | 37.27981 | -122.18957 | 21545 ft | 383 kts | 133° |
| 2026-05-04 03:21 | 37.26161 | -122.16497 | 22082 ft | 387 kts | 133° |
| 2026-05-04 03:21 | 37.24319 | -122.14010 | 22629 ft | 390 kts | 133° |
| 2026-05-04 03:21 | 37.22492 | -122.11545 | 23155 ft | 392 kts | 132° |
| 2026-05-04 03:21 | 37.20638 | -122.09024 | 23601 ft | 395 kts | 133° |
| 2026-05-04 03:22 | 37.18753 | -122.06485 | 24062 ft | 399 kts | 133° |
| 2026-05-04 03:22 | 37.16852 | -122.03930 | 24534 ft | 402 kts | 133° |
| 2026-05-04 03:22 | 37.14934 | -122.01354 | 24932 ft | 406 kts | 133° |
| 2026-05-04 03:22 | 37.12989 | -121.98745 | 25340 ft | 410 kts | 134° |
| 2026-05-04 03:23 | 37.11028 | -121.96114 | 25705 ft | 414 kts | 135° |
| 2026-05-04 03:23 | 37.09042 | -121.93452 | 25982 ft | 421 kts | 135° |
| 2026-05-04 03:23 | 37.07050 | -121.90783 | 26277 ft | 426 kts | 135° |
| 2026-05-04 03:23 | 37.05015 | -121.88058 | 26653 ft | 429 kts | 135° |
| 2026-05-04 03:24 | 37.02960 | -121.85308 | 27064 ft | 431 kts | 136° |
| 2026-05-04 03:24 | 37.00901 | -121.82550 | 27388 ft | 435 kts | 136° |
| 2026-05-04 03:24 | 36.98844 | -121.79793 | 27682 ft | 440 kts | 137° |
| 2026-05-04 03:24 | 36.96744 | -121.76989 | 27980 ft | 443 kts | 137° |
| 2026-05-04 03:25 | 36.95336 | -121.75112 | 28191 ft | 445 kts | 137° |
| 2026-05-04 03:25 | 36.92498 | -121.71336 | 28566 ft | 450 kts | 138° |
| 2026-05-04 03:25 | 36.90334 | -121.68459 | 28840 ft | 454 kts | 138° |
| 2026-05-04 03:25 | 36.88159 | -121.65565 | 29119 ft | 457 kts | 139° |
| 2026-05-04 03:26 | 36.85989 | -121.62679 | 29367 ft | 461 kts | 139° |
| 2026-05-04 03:26 | 36.83777 | -121.59742 | 29634 ft | 464 kts | 139° |
| 2026-05-04 03:26 | 36.81550 | -121.56796 | 29873 ft | 467 kts | 140° |
| 2026-05-04 03:26 | 36.79331 | -121.53860 | 30112 ft | 471 kts | 140° |
| 2026-05-04 03:27 | 36.77829 | -121.51868 | 30283 ft | 472 kts | 140° |
| 2026-05-04 03:27 | 36.75563 | -121.48879 | 30543 ft | 473 kts | 141° |
| 2026-05-04 03:27 | 36.73203 | -121.45837 | 30834 ft | 476 kts | 141° |
| 2026-05-04 03:27 | 36.70992 | -121.42892 | 31139 ft | 477 kts | 140° |
| 2026-05-04 03:28 | 36.68739 | -121.39853 | 31461 ft | 478 kts | 141° |
| 2026-05-04 03:28 | 36.66465 | -121.36830 | 31871 ft | 476 kts | 141° |
| 2026-05-04 03:28 | 36.64188 | -121.33824 | 32141 ft | 478 kts | 142° |
| 2026-05-04 03:28 | 36.61897 | -121.30813 | 32367 ft | 480 kts | 142° |
| 2026-05-04 03:29 | 36.59597 | -121.27793 | 32677 ft | 480 kts | 142° |
| 2026-05-04 03:29 | 36.57299 | -121.24774 | 33008 ft | 480 kts | 143° |
| 2026-05-04 03:29 | 36.54998 | -121.21753 | 33282 ft | 481 kts | 143° |
| 2026-05-04 03:29 | 36.52729 | -121.18765 | 33572 ft | 481 kts | 143° |
| 2026-05-04 03:30 | 36.50416 | -121.15764 | 33879 ft | 478 kts | 145° |
| 2026-05-04 03:30 | 36.48088 | -121.12749 | 34072 ft | 485 kts | 142° |
| 2026-05-04 03:30 | 36.45798 | -121.09649 | 34327 ft | 484 kts | 143° |
| 2026-05-04 03:30 | 36.43492 | -121.06635 | 34606 ft | 484 kts | 144° |
| 2026-05-04 03:31 | 36.41183 | -121.03598 | 34921 ft | 485 kts | 142° |
| 2026-05-04 03:31 | 36.36729 | -120.97228 | 35019 ft | 490 kts | 140° |
| 2026-05-04 03:32 | 36.32362 | -120.90794 | 35021 ft | 489 kts | 140° |
| 2026-05-04 03:32 | 36.27937 | -120.84375 | 35013 ft | 489 kts | 141° |
| 2026-05-04 03:33 | 36.23632 | -120.77832 | 35016 ft | 489 kts | 141° |
| 2026-05-04 03:33 | 36.19095 | -120.71564 | 34993 ft | 487 kts | 142° |
| 2026-05-04 03:34 | 36.14600 | -120.65318 | 35001 ft | 487 kts | 141° |
| 2026-05-04 03:34 | 36.10149 | -120.59013 | 35017 ft | 487 kts | 141° |
| 2026-05-04 03:35 | 36.05700 | -120.52686 | 34997 ft | 489 kts | 141° |
| 2026-05-04 03:35 | 36.01179 | -120.46276 | 35020 ft | 496 kts | 141° |
| 2026-05-04 03:36 | 35.96672 | -120.39867 | 35018 ft | 496 kts | 142° |
| 2026-05-04 03:36 | 35.92102 | -120.33442 | 34999 ft | 499 kts | 142° |
| 2026-05-04 03:37 | 35.87460 | -120.27071 | 34983 ft | 491 kts | 148° |
| 2026-05-04 03:37 | 35.84903 | -120.24446 | 34999 ft | 476 kts | 158° |
| 2026-05-04 03:37 | 35.82125 | -120.22319 | 35012 ft | 468 kts | 161° |
| 2026-05-04 03:38 | 35.76511 | -120.18225 | 34992 ft | 468 kts | 161° |
| 2026-05-04 03:38 | 35.70929 | -120.14072 | 34984 ft | 466 kts | 161° |
| 2026-05-04 03:38 | 35.68233 | -120.12029 | 34648 ft | 458 kts | 161° |
| 2026-05-04 03:39 | 35.65488 | -120.09958 | 33970 ft | 459 kts | 161° |
| 2026-05-04 03:39 | 35.62748 | -120.07897 | 33140 ft | 463 kts | 161° |
| 2026-05-04 03:39 | 35.60022 | -120.05842 | 32302 ft | 468 kts | 161° |
| 2026-05-04 03:39 | 35.57224 | -120.03736 | 31452 ft | 471 kts | 160° |
| 2026-05-04 03:40 | 35.54406 | -120.01612 | 30612 ft | 474 kts | 160° |
| 2026-05-04 03:40 | 35.51625 | -119.99515 | 29898 ft | 473 kts | 160° |
| 2026-05-04 03:40 | 35.48817 | -119.97393 | 29322 ft | 469 kts | 159° |
| 2026-05-04 03:40 | 35.46052 | -119.95302 | 29170 ft | 466 kts | 159° |
| 2026-05-04 03:41 | 35.43260 | -119.93206 | 29048 ft | 471 kts | 159° |
| 2026-05-04 03:41 | 35.37664 | -119.89010 | 29018 ft | 476 kts | 159° |
| 2026-05-04 03:42 | 35.31988 | -119.84815 | 29014 ft | 477 kts | 159° |
| 2026-05-04 03:42 | 35.26411 | -119.80362 | 29002 ft | 483 kts | 154° |
| 2026-05-04 03:43 | 35.21095 | -119.75324 | 29013 ft | 485 kts | 152° |
| 2026-05-04 03:43 | 35.15776 | -119.70204 | 29001 ft | 486 kts | 153° |
| 2026-05-04 03:44 | 35.10449 | -119.65195 | 28985 ft | 485 kts | 153° |
| 2026-05-04 03:44 | 35.07800 | -119.62724 | 28722 ft | 474 kts | 153° |
| 2026-05-04 03:44 | 35.05216 | -119.60311 | 28454 ft | 460 kts | 154° |
| 2026-05-04 03:44 | 35.02707 | -119.57970 | 28196 ft | 450 kts | 154° |
| 2026-05-04 03:45 | 35.00225 | -119.55672 | 27955 ft | 447 kts | 154° |
| 2026-05-04 03:45 | 34.97737 | -119.53380 | 27717 ft | 446 kts | 154° |
| 2026-05-04 03:45 | 34.95259 | -119.51098 | 27463 ft | 445 kts | 154° |
| 2026-05-04 03:45 | 34.92805 | -119.48822 | 27061 ft | 440 kts | 154° |
| 2026-05-04 03:46 | 34.90359 | -119.46561 | 27022 ft | 438 kts | 154° |
| 2026-05-04 03:46 | 34.87981 | -119.44402 | 26978 ft | 423 kts | 155° |
| 2026-05-04 03:46 | 34.85654 | -119.42316 | 26973 ft | 407 kts | 155° |
| 2026-05-04 03:46 | 34.83412 | -119.40321 | 26967 ft | 392 kts | 156° |
| 2026-05-04 03:47 | 34.81246 | -119.38396 | 26968 ft | 377 kts | 157° |
| 2026-05-04 03:47 | 34.79164 | -119.36541 | 26980 ft | 364 kts | 157° |
| 2026-05-04 03:47 | 34.77159 | -119.34760 | 26981 ft | 351 kts | 158° |
| 2026-05-04 03:47 | 34.75224 | -119.33032 | 26976 ft | 339 kts | 158° |
| 2026-05-04 03:48 | 34.73360 | -119.31381 | 26982 ft | 325 kts | 159° |
| 2026-05-04 03:48 | 34.71563 | -119.29814 | 26766 ft | 320 kts | 160° |
| 2026-05-04 03:48 | 34.69702 | -119.28216 | 25930 ft | 336 kts | 159° |
| 2026-05-04 03:48 | 34.67703 | -119.26505 | 24654 ft | 365 kts | 157° |
| 2026-05-04 03:49 | 34.65595 | -119.24671 | 24304 ft | 376 kts | 155° |
| 2026-05-04 03:49 | 34.63469 | -119.22802 | 24054 ft | 376 kts | 155° |
| 2026-05-04 03:49 | 34.61337 | -119.20949 | 23571 ft | 378 kts | 155° |
| 2026-05-04 03:49 | 34.59219 | -119.19124 | 23155 ft | 376 kts | 155° |
| 2026-05-04 03:50 | 34.57077 | -119.17278 | 22725 ft | 374 kts | 155° |
| 2026-05-04 03:50 | 34.54954 | -119.15431 | 22289 ft | 374 kts | 154° |
| 2026-05-04 03:50 | 34.52882 | -119.13594 | 21918 ft | 372 kts | 154° |
| 2026-05-04 03:50 | 34.50813 | -119.11751 | 21776 ft | 363 kts | 154° |
| 2026-05-04 03:51 | 34.48802 | -119.09952 | 21676 ft | 354 kts | 154° |
| 2026-05-04 03:51 | 34.46821 | -119.08200 | 21354 ft | 351 kts | 154° |
| 2026-05-04 03:51 | 34.44837 | -119.06453 | 20969 ft | 352 kts | 154° |
| 2026-05-04 03:51 | 34.42876 | -119.04744 | 20607 ft | 351 kts | 154° |
| 2026-05-04 03:52 | 34.40896 | -119.03030 | 20317 ft | 348 kts | 154° |
| 2026-05-04 03:52 | 34.38907 | -119.01315 | 19573 ft | 357 kts | 154° |
| 2026-05-04 03:52 | 34.36822 | -118.99522 | 18542 ft | 375 kts | 153° |
| 2026-05-04 03:52 | 34.34717 | -118.97701 | 17970 ft | 376 kts | 152° |
| 2026-05-04 03:53 | 34.32608 | -118.95823 | 17590 ft | 374 kts | 150° |
| 2026-05-04 03:53 | 34.30541 | -118.93932 | 17214 ft | 369 kts | 150° |
| 2026-05-04 03:53 | 34.28489 | -118.92056 | 16769 ft | 367 kts | 150° |
| 2026-05-04 03:53 | 34.26481 | -118.90229 | 16345 ft | 364 kts | 150° |
| 2026-05-04 03:54 | 34.24464 | -118.88394 | 15993 ft | 361 kts | 149° |
| 2026-05-04 03:54 | 34.22456 | -118.86549 | 15622 ft | 361 kts | 149° |
| 2026-05-04 03:54 | 34.20462 | -118.84714 | 15237 ft | 358 kts | 148° |
| 2026-05-04 03:54 | 34.18493 | -118.82904 | 14850 ft | 354 kts | 148° |
| 2026-05-04 03:55 | 34.16561 | -118.81126 | 14486 ft | 351 kts | 148° |
| 2026-05-04 03:55 | 34.14686 | -118.79227 | 14117 ft | 350 kts | 143° |
| 2026-05-04 03:55 | 34.12887 | -118.77243 | 14037 ft | 354 kts | 142° |
| 2026-05-04 03:55 | 34.11071 | -118.75215 | 13995 ft | 355 kts | 142° |
| 2026-05-04 03:56 | 34.09260 | -118.73210 | 13984 ft | 350 kts | 143° |
| 2026-05-04 03:56 | 34.07480 | -118.71267 | 14007 ft | 348 kts | 142° |
| 2026-05-04 03:56 | 34.05679 | -118.69301 | 14015 ft | 349 kts | 143° |
| 2026-05-04 03:56 | 34.03863 | -118.67339 | 14001 ft | 349 kts | 143° |
| 2026-05-04 03:57 | 34.02073 | -118.65399 | 13940 ft | 340 kts | 143° |
| 2026-05-04 03:57 | 34.00345 | -118.63512 | 13857 ft | 328 kts | 142° |
| 2026-05-04 03:57 | 33.98979 | -118.61365 | 13744 ft | 330 kts | 120° |
| 2026-05-04 03:57 | 33.98406 | -118.58702 | 13661 ft | 330 kts | 96° |
| 2026-05-04 03:58 | 33.98984 | -118.53283 | 13196 ft | 325 kts | 82° |
| 2026-05-04 03:58 | 33.99395 | -118.50615 | 13000 ft | 320 kts | 85° |
| 2026-05-04 03:58 | 33.99798 | -118.47996 | 12962 ft | 315 kts | 79° |
| 2026-05-04 03:59 | 34.00300 | -118.45324 | 11974 ft | 341 kts | 81° |
| 2026-05-04 03:59 | 34.00750 | -118.42483 | 11683 ft | 337 kts | 80° |
| 2026-05-04 03:59 | 34.01214 | -118.39722 | 11193 ft | 338 kts | 82° |
| 2026-05-04 03:59 | 34.01626 | -118.36928 | 10688 ft | 340 kts | 81° |
| 2026-05-04 04:00 | 34.02036 | -118.34206 | 10832 ft | 317 kts | 81° |
| 2026-05-04 04:00 | 34.02405 | -118.31776 | 11643 ft | 272 kts | 82° |
| 2026-05-04 04:00 | 34.02745 | -118.29678 | 12119 ft | 239 kts | 82° |
| 2026-05-04 04:00 | 34.03090 | -118.27680 | 11574 ft | 253 kts | 81° |
| 2026-05-04 04:01 | 34.03462 | -118.25474 | 10595 ft | 285 kts | 81° |
| 2026-05-04 04:01 | 34.03845 | -118.23057 | 9807 ft | 305 kts | 81° |